This is the latest recevied weather packets stored in our database for station/object DG9BJA-13. If no packets are shown the sender has not sent any weather packets the latest 10 day(s).
| Time | Temp. | Humidity | Pressure | Rain* | Wind** | Luminosity | Snow |
|---|---|---|---|---|---|---|---|
| 1777901777 | 17.78° C | 78% | 1013 hPa | 0 mm | - | 193 W/m² | - |
| 1777901177 | 17.78° C | 78% | 1012.7 hPa | 0 mm | - | 229 W/m² | - |
| 1777900577 | 18.33° C | 77% | 1012.7 hPa | 0 mm | - | 285 W/m² | - |
| 1777899977 | 18.33° C | 76% | 1013 hPa | 0 mm | - | 366 W/m² | - |
| 1777899377 | 18.89° C | 73% | 1013 hPa | 0 mm | - | 322 W/m² | - |
| 1777898777 | 18.33° C | 75% | 1013 hPa | 0 mm | - | 360 W/m² | - |
| 1777898176 | 18.89° C | 74% | 1013 hPa | 0 mm | - | 227 W/m² | - |
| 1777897576 | 18.89° C | 75% | 1013 hPa | 0 mm | - | 221 W/m² | - |
| 1777896977 | 18.89° C | 74% | 1013 hPa | 0 mm | - | 390 W/m² | - |
| 1777896377 | 18.89° C | 72% | 1013 hPa | 0 mm | - | 183 W/m² | - |
| 1777895776 | 18.89° C | 72% | 1013.1 hPa | 0 mm | - | 202 W/m² | - |
| 1777895176 | 18.89° C | 71% | 1013.1 hPa | 0 mm | - | 227 W/m² | - |
| 1777894577 | 18.89° C | 69% | 1013 hPa | 0 mm | - | 229 W/m² | - |
| 1777893977 | 18.89° C | 68% | 1013 hPa | 0 mm | - | 278 W/m² | - |
| 1777893376 | 19.44° C | 68% | 1013 hPa | 0 mm | - | 329 W/m² | - |
| 1777892776 | 19.44° C | 70% | 1013.1 hPa | 0 mm | - | 403 W/m² | - |
| 1777892176 | 19.44° C | 69% | 1013.1 hPa | 0 mm | - | 424 W/m² | - |
| 1777891577 | 19.44° C | 70% | 1013.1 hPa | 0 mm | - | 1039 W/m² | - |
| 1777890976 | 18.89° C | 72% | 1013.2 hPa | 0 mm | - | 1020 W/m² | - |
| 1777890376 | 18.89° C | 71% | 1013.1 hPa | 0 mm | - | 376 W/m² | - |
| 1777889776 | 18.89° C | 71% | 1013.1 hPa | 0 mm | - | 357 W/m² | - |
| 1777889176 | 19.44° C | 71% | 1013.1 hPa | 0 mm | - | 526 W/m² | - |
| 1777888576 | 18.89° C | 72% | 1013.2 hPa | 0 mm | - | 508 W/m² | - |
| 1777887976 | 18.89° C | 72% | 1013.2 hPa | 0 mm | - | 445 W/m² | - |
| 1777887376 | 18.89° C | 74% | 1013.2 hPa | 0 mm | - | 534 W/m² | - |
* Rain latest hour (hover to see other rain measurements)
** Current wind speed in m/s (hover to see current wind gust speed)